sensor_id;sensor_type;location;lat;lon;timestamp;P1;durP1;ratioP1;P2;durP2;ratioP2
51981;SDS011;37998;53.416;6.730;2022-09-09T00:00:29;8.88;;;7.35;;
51981;SDS011;37998;53.416;6.730;2022-09-09T00:08:39;8.30;;;7.28;;
51981;SDS011;37998;53.416;6.730;2022-09-09T00:11:26;12.38;;;7.90;;
51981;SDS011;37998;53.416;6.730;2022-09-09T00:14:23;12.48;;;7.90;;
51981;SDS011;37998;53.416;6.730;2022-09-09T00:17:04;15.35;;;7.85;;
51981;SDS011;37998;53.416;6.730;2022-09-09T00:22:12;10.80;;;8.40;;
51981;SDS011;37998;53.416;6.730;2022-09-09T00:24:43;11.80;;;8.18;;
51981;SDS011;37998;53.416;6.730;2022-09-09T00:27:28;10.07;;;8.40;;
51981;SDS011;37998;53.416;6.730;2022-09-09T00:33:00;11.88;;;8.35;;
51981;SDS011;37998;53.416;6.730;2022-09-09T00:35:37;12.02;;;9.07;;
51981;SDS011;37998;53.416;6.730;2022-09-09T00:38:17;12.55;;;9.30;;
51981;SDS011;37998;53.416;6.730;2022-09-09T00:41:09;10.60;;;8.73;;
51981;SDS011;37998;53.416;6.730;2022-09-09T00:43:42;12.25;;;9.07;;
51981;SDS011;37998;53.416;6.730;2022-09-09T00:46:31;14.85;;;8.98;;
51981;SDS011;37998;53.416;6.730;2022-09-09T00:49:19;11.25;;;8.68;;
51981;SDS011;37998;53.416;6.730;2022-09-09T00:54:52;14.10;;;8.85;;
51981;SDS011;37998;53.416;6.730;2022-09-09T00:57:26;11.38;;;9.55;;
51981;SDS011;37998;53.416;6.730;2022-09-09T00:59:56;10.38;;;9.07;;
51981;SDS011;37998;53.416;6.730;2022-09-09T01:02:49;12.13;;;9.85;;
51981;SDS011;37998;53.416;6.730;2022-09-09T01:06:11;11.77;;;9.18;;
51981;SDS011;37998;53.416;6.730;2022-09-09T01:10:53;11.35;;;9.15;;
51981;SDS011;37998;53.416;6.730;2022-09-09T01:13:22;12.02;;;9.15;;
51981;SDS011;37998;53.416;6.730;2022-09-09T01:15:51;12.60;;;9.65;;
51981;SDS011;37998;53.416;6.730;2022-09-09T01:18:19;14.82;;;10.65;;
51981;SDS011;37998;53.416;6.730;2022-09-09T01:31:32;13.38;;;9.45;;
51981;SDS011;37998;53.416;6.730;2022-09-09T01:34:22;13.25;;;9.32;;
51981;SDS011;37998;53.416;6.730;2022-09-09T01:37:08;13.93;;;9.40;;
51981;SDS011;37998;53.416;6.730;2022-09-09T01:39:36;11.68;;;9.80;;
51981;SDS011;37998;53.416;6.730;2022-09-09T01:42:05;13.60;;;9.63;;
51981;SDS011;37998;53.416;6.730;2022-09-09T01:44:34;13.75;;;9.38;;
51981;SDS011;37998;53.416;6.730;2022-09-09T01:47:00;12.35;;;10.70;;
51981;SDS011;37998;53.416;6.730;2022-09-09T01:49:26;12.73;;;10.32;;
51981;SDS011;37998;53.416;6.730;2022-09-09T01:51:53;14.00;;;9.88;;
51981;SDS011;37998;53.416;6.730;2022-09-09T01:54:21;16.20;;;10.27;;
51981;SDS011;37998;53.416;6.730;2022-09-09T02:02:24;14.38;;;10.40;;
51981;SDS011;37998;53.416;6.730;2022-09-09T02:07:49;10.15;;;9.13;;
51981;SDS011;37998;53.416;6.730;2022-09-09T02:10:21;16.35;;;10.85;;
51981;SDS011;37998;53.416;6.730;2022-09-09T02:16:03;14.70;;;9.65;;
51981;SDS011;37998;53.416;6.730;2022-09-09T02:21:05;14.52;;;9.80;;
51981;SDS011;37998;53.416;6.730;2022-09-09T02:23:32;15.02;;;9.85;;
51981;SDS011;37998;53.416;6.730;2022-09-09T02:25:59;10.85;;;9.52;;
51981;SDS011;37998;53.416;6.730;2022-09-09T02:28:27;14.00;;;9.82;;
51981;SDS011;37998;53.416;6.730;2022-09-09T02:30:54;12.88;;;9.55;;
51981;SDS011;37998;53.416;6.730;2022-09-09T02:33:27;14.95;;;9.65;;
51981;SDS011;37998;53.416;6.730;2022-09-09T02:35:58;16.80;;;9.38;;
51981;SDS011;37998;53.416;6.730;2022-09-09T02:38:28;12.68;;;9.73;;
51981;SDS011;37998;53.416;6.730;2022-09-09T02:40:58;11.10;;;9.88;;
51981;SDS011;37998;53.416;6.730;2022-09-09T02:43:24;13.10;;;9.05;;
51981;SDS011;37998;53.416;6.730;2022-09-09T02:48:33;13.60;;;9.70;;
51981;SDS011;37998;53.416;6.730;2022-09-09T02:53:48;12.25;;;9.30;;
51981;SDS011;37998;53.416;6.730;2022-09-09T02:56:25;13.85;;;9.60;;
51981;SDS011;37998;53.416;6.730;2022-09-09T02:58:54;11.32;;;8.75;;
51981;SDS011;37998;53.416;6.730;2022-09-09T03:01:20;14.82;;;9.18;;
51981;SDS011;37998;53.416;6.730;2022-09-09T03:03:46;12.43;;;9.40;;
51981;SDS011;37998;53.416;6.730;2022-09-09T03:06:13;15.73;;;9.68;;
51981;SDS011;37998;53.416;6.730;2022-09-09T03:08:39;11.07;;;9.30;;
51981;SDS011;37998;53.416;6.730;2022-09-09T03:11:05;12.13;;;9.88;;
51981;SDS011;37998;53.416;6.730;2022-09-09T03:13:32;11.93;;;9.75;;
51981;SDS011;37998;53.416;6.730;2022-09-09T03:15:57;13.63;;;10.00;;
51981;SDS011;37998;53.416;6.730;2022-09-09T03:18:23;13.45;;;9.88;;
51981;SDS011;37998;53.416;6.730;2022-09-09T03:20:50;13.93;;;9.98;;
51981;SDS011;37998;53.416;6.730;2022-09-09T03:23:16;12.88;;;9.07;;
51981;SDS011;37998;53.416;6.730;2022-09-09T03:25:48;12.40;;;9.82;;
51981;SDS011;37998;53.416;6.730;2022-09-09T03:30:40;16.83;;;10.30;;
51981;SDS011;37998;53.416;6.730;2022-09-09T03:33:06;16.70;;;11.07;;
51981;SDS011;37998;53.416;6.730;2022-09-09T03:35:31;14.90;;;10.65;;
51981;SDS011;37998;53.416;6.730;2022-09-09T03:37:57;13.38;;;10.63;;
51981;SDS011;37998;53.416;6.730;2022-09-09T03:40:22;15.43;;;10.82;;
51981;SDS011;37998;53.416;6.730;2022-09-09T03:42:48;14.10;;;11.10;;
51981;SDS011;37998;53.416;6.730;2022-09-09T03:45:14;15.85;;;11.25;;
51981;SDS011;37998;53.416;6.730;2022-09-09T03:47:40;18.02;;;10.77;;
51981;SDS011;37998;53.416;6.730;2022-09-09T03:50:06;14.82;;;10.80;;
51981;SDS011;37998;53.416;6.730;2022-09-09T03:52:38;16.70;;;11.43;;
51981;SDS011;37998;53.416;6.730;2022-09-09T03:55:06;16.88;;;11.55;;
51981;SDS011;37998;53.416;6.730;2022-09-09T03:57:32;15.27;;;10.63;;
51981;SDS011;37998;53.416;6.730;2022-09-09T04:00:00;16.50;;;10.40;;
51981;SDS011;37998;53.416;6.730;2022-09-09T04:02:30;13.82;;;11.02;;
51981;SDS011;37998;53.416;6.730;2022-09-09T04:04:55;13.13;;;10.27;;
51981;SDS011;37998;53.416;6.730;2022-09-09T04:07:21;14.05;;;10.52;;
51981;SDS011;37998;53.416;6.730;2022-09-09T04:09:47;13.35;;;10.00;;
51981;SDS011;37998;53.416;6.730;2022-09-09T04:12:13;16.02;;;10.93;;
51981;SDS011;37998;53.416;6.730;2022-09-09T04:14:39;11.98;;;10.20;;
51981;SDS011;37998;53.416;6.730;2022-09-09T04:17:04;13.82;;;10.25;;
51981;SDS011;37998;53.416;6.730;2022-09-09T04:19:31;13.45;;;10.25;;
51981;SDS011;37998;53.416;6.730;2022-09-09T04:21:57;16.52;;;10.30;;
51981;SDS011;37998;53.416;6.730;2022-09-09T04:24:24;14.18;;;9.80;;
51981;SDS011;37998;53.416;6.730;2022-09-09T04:26:51;13.85;;;9.70;;
51981;SDS011;37998;53.416;6.730;2022-09-09T04:29:17;12.13;;;9.75;;
51981;SDS011;37998;53.416;6.730;2022-09-09T04:31:43;13.15;;;9.57;;
51981;SDS011;37998;53.416;6.730;2022-09-09T04:34:09;12.68;;;9.75;;
51981;SDS011;37998;53.416;6.730;2022-09-09T04:36:35;11.98;;;9.70;;
51981;SDS011;37998;53.416;6.730;2022-09-09T04:39:01;14.13;;;9.07;;
51981;SDS011;37998;53.416;6.730;2022-09-09T04:41:27;13.88;;;9.68;;
51981;SDS011;37998;53.416;6.730;2022-09-09T04:43:53;14.43;;;9.38;;
51981;SDS011;37998;53.416;6.730;2022-09-09T04:46:19;15.13;;;8.57;;
51981;SDS011;37998;53.416;6.730;2022-09-09T04:48:45;15.30;;;9.40;;
51981;SDS011;37998;53.416;6.730;2022-09-09T04:51:13;9.82;;;7.60;;
51981;SDS011;37998;53.416;6.730;2022-09-09T04:53:39;9.45;;;7.28;;
51981;SDS011;37998;53.416;6.730;2022-09-09T04:56:06;11.13;;;7.38;;
51981;SDS011;37998;53.416;6.730;2022-09-09T04:58:37;11.40;;;7.40;;
51981;SDS011;37998;53.416;6.730;2022-09-09T05:01:13;9.50;;;6.35;;
51981;SDS011;37998;53.416;6.730;2022-09-09T05:03:42;7.18;;;5.70;;
51981;SDS011;37998;53.416;6.730;2022-09-09T05:06:11;11.75;;;5.30;;
51981;SDS011;37998;53.416;6.730;2022-09-09T05:08:41;8.93;;;5.80;;
51981;SDS011;37998;53.416;6.730;2022-09-09T05:13:51;10.60;;;4.87;;
51981;SDS011;37998;53.416;6.730;2022-09-09T05:16:17;8.40;;;4.57;;
51981;SDS011;37998;53.416;6.730;2022-09-09T05:18:44;7.85;;;4.57;;
51981;SDS011;37998;53.416;6.730;2022-09-09T05:21:11;7.72;;;4.80;;
51981;SDS011;37998;53.416;6.730;2022-09-09T05:23:38;8.07;;;4.20;;
51981;SDS011;37998;53.416;6.730;2022-09-09T05:26:04;6.60;;;4.20;;
51981;SDS011;37998;53.416;6.730;2022-09-09T05:28:30;9.00;;;3.88;;
51981;SDS011;37998;53.416;6.730;2022-09-09T05:30:56;8.70;;;4.30;;
51981;SDS011;37998;53.416;6.730;2022-09-09T05:33:28;7.25;;;4.47;;
51981;SDS011;37998;53.416;6.730;2022-09-09T05:35:55;5.93;;;3.67;;
51981;SDS011;37998;53.416;6.730;2022-09-09T05:38:22;9.73;;;3.47;;
51981;SDS011;37998;53.416;6.730;2022-09-09T05:40:50;7.88;;;3.90;;
51981;SDS011;37998;53.416;6.730;2022-09-09T05:43:17;6.55;;;4.20;;
51981;SDS011;37998;53.416;6.730;2022-09-09T05:45:58;7.68;;;4.07;;
51981;SDS011;37998;53.416;6.730;2022-09-09T05:48:32;8.32;;;4.93;;
51981;SDS011;37998;53.416;6.730;2022-09-09T05:50:59;8.52;;;5.10;;
51981;SDS011;37998;53.416;6.730;2022-09-09T05:53:26;9.95;;;5.18;;
51981;SDS011;37998;53.416;6.730;2022-09-09T05:55:59;8.23;;;5.18;;
51981;SDS011;37998;53.416;6.730;2022-09-09T05:58:30;7.47;;;4.93;;
51981;SDS011;37998;53.416;6.730;2022-09-09T06:01:09;9.48;;;5.82;;
51981;SDS011;37998;53.416;6.730;2022-09-09T06:03:37;8.52;;;6.00;;
51981;SDS011;37998;53.416;6.730;2022-09-09T06:06:05;8.85;;;5.78;;
51981;SDS011;37998;53.416;6.730;2022-09-09T06:08:36;7.72;;;5.25;;
51981;SDS011;37998;53.416;6.730;2022-09-09T06:11:05;10.02;;;6.45;;
51981;SDS011;37998;53.416;6.730;2022-09-09T06:13:41;10.73;;;6.05;;
51981;SDS011;37998;53.416;6.730;2022-09-09T06:16:08;8.18;;;6.00;;
51981;SDS011;37998;53.416;6.730;2022-09-09T06:18:36;8.43;;;6.65;;
51981;SDS011;37998;53.416;6.730;2022-09-09T06:21:04;8.82;;;6.05;;
51981;SDS011;37998;53.416;6.730;2022-09-09T06:23:31;11.48;;;6.90;;
51981;SDS011;37998;53.416;6.730;2022-09-09T06:26:02;12.95;;;6.82;;
51981;SDS011;37998;53.416;6.730;2022-09-09T06:28:33;7.72;;;6.78;;
51981;SDS011;37998;53.416;6.730;2022-09-09T06:31:00;10.73;;;7.05;;
51981;SDS011;37998;53.416;6.730;2022-09-09T06:33:30;9.98;;;6.85;;
51981;SDS011;37998;53.416;6.730;2022-09-09T06:35:58;10.52;;;7.25;;
51981;SDS011;37998;53.416;6.730;2022-09-09T06:38:24;10.52;;;7.15;;
51981;SDS011;37998;53.416;6.730;2022-09-09T06:40:51;10.77;;;7.35;;
51981;SDS011;37998;53.416;6.730;2022-09-09T06:43:21;8.50;;;7.63;;
51981;SDS011;37998;53.416;6.730;2022-09-09T06:46:32;9.07;;;7.55;;
51981;SDS011;37998;53.416;6.730;2022-09-09T06:48:39;9.63;;;7.63;;
51981;SDS011;37998;53.416;6.730;2022-09-09T06:53:36;10.50;;;8.25;;
51981;SDS011;37998;53.416;6.730;2022-09-09T06:58:35;11.32;;;8.38;;
51981;SDS011;37998;53.416;6.730;2022-09-09T07:01:05;11.27;;;7.78;;
51981;SDS011;37998;53.416;6.730;2022-09-09T07:03:31;13.45;;;8.52;;
51981;SDS011;37998;53.416;6.730;2022-09-09T07:05:58;10.95;;;8.40;;
51981;SDS011;37998;53.416;6.730;2022-09-09T07:08:24;11.57;;;8.50;;
51981;SDS011;37998;53.416;6.730;2022-09-09T07:10:53;13.10;;;8.60;;
51981;SDS011;37998;53.416;6.730;2022-09-09T07:13:25;9.10;;;7.30;;
51981;SDS011;37998;53.416;6.730;2022-09-09T07:15:52;11.43;;;7.57;;
51981;SDS011;37998;53.416;6.730;2022-09-09T07:18:18;9.95;;;7.57;;
51981;SDS011;37998;53.416;6.730;2022-09-09T07:20:54;9.05;;;8.10;;
51981;SDS011;37998;53.416;6.730;2022-09-09T07:23:20;10.40;;;7.47;;
51981;SDS011;37998;53.416;6.730;2022-09-09T07:25:46;8.68;;;7.15;;
51981;SDS011;37998;53.416;6.730;2022-09-09T07:28:12;10.45;;;7.28;;
51981;SDS011;37998;53.416;6.730;2022-09-09T07:30:39;10.93;;;7.40;;
51981;SDS011;37998;53.416;6.730;2022-09-09T07:33:05;8.63;;;7.00;;
51981;SDS011;37998;53.416;6.730;2022-09-09T07:35:31;8.25;;;6.65;;
51981;SDS011;37998;53.416;6.730;2022-09-09T07:37:57;10.43;;;7.05;;
51981;SDS011;37998;53.416;6.730;2022-09-09T07:40:25;8.13;;;6.75;;
51981;SDS011;37998;53.416;6.730;2022-09-09T07:42:51;9.43;;;7.07;;
51981;SDS011;37998;53.416;6.730;2022-09-09T07:45:18;8.70;;;6.70;;
51981;SDS011;37998;53.416;6.730;2022-09-09T07:47:44;8.07;;;7.10;;
51981;SDS011;37998;53.416;6.730;2022-09-09T07:50:10;11.95;;;7.13;;
51981;SDS011;37998;53.416;6.730;2022-09-09T07:52:36;11.02;;;6.07;;
51981;SDS011;37998;53.416;6.730;2022-09-09T07:55:02;7.53;;;5.85;;
51981;SDS011;37998;53.416;6.730;2022-09-09T07:57:29;11.13;;;6.47;;
51981;SDS011;37998;53.416;6.730;2022-09-09T07:59:55;9.25;;;6.32;;
51981;SDS011;37998;53.416;6.730;2022-09-09T08:02:22;10.60;;;7.28;;
51981;SDS011;37998;53.416;6.730;2022-09-09T08:04:48;8.45;;;7.05;;
51981;SDS011;37998;53.416;6.730;2022-09-09T08:07:14;9.02;;;6.88;;
51981;SDS011;37998;53.416;6.730;2022-09-09T08:09:41;8.48;;;6.20;;
51981;SDS011;37998;53.416;6.730;2022-09-09T08:12:06;10.00;;;5.88;;
51981;SDS011;37998;53.416;6.730;2022-09-09T08:14:33;8.73;;;6.20;;
51981;SDS011;37998;53.416;6.730;2022-09-09T08:16:59;8.48;;;5.78;;
51981;SDS011;37998;53.416;6.730;2022-09-09T08:19:24;8.85;;;5.90;;
51981;SDS011;37998;53.416;6.730;2022-09-09T08:21:50;9.82;;;6.10;;
51981;SDS011;37998;53.416;6.730;2022-09-09T08:24:16;10.65;;;5.85;;
51981;SDS011;37998;53.416;6.730;2022-09-09T08:26:43;9.93;;;5.93;;
51981;SDS011;37998;53.416;6.730;2022-09-09T08:29:10;7.28;;;6.50;;
51981;SDS011;37998;53.416;6.730;2022-09-09T08:31:48;7.00;;;5.75;;
51981;SDS011;37998;53.416;6.730;2022-09-09T08:34:19;10.20;;;6.40;;
51981;SDS011;37998;53.416;6.730;2022-09-09T08:36:46;9.77;;;6.68;;
51981;SDS011;37998;53.416;6.730;2022-09-09T08:39:14;8.02;;;6.07;;
51981;SDS011;37998;53.416;6.730;2022-09-09T08:50:32;9.27;;;6.07;;
51981;SDS011;37998;53.416;6.730;2022-09-09T08:55:59;11.80;;;6.45;;
51981;SDS011;37998;53.416;6.730;2022-09-09T08:58:29;7.57;;;5.20;;
51981;SDS011;37998;53.416;6.730;2022-09-09T09:11:37;8.15;;;4.32;;
51981;SDS011;37998;53.416;6.730;2022-09-09T09:14:09;7.32;;;4.45;;
51981;SDS011;37998;53.416;6.730;2022-09-09T09:17:10;7.60;;;4.60;;
51981;SDS011;37998;53.416;6.730;2022-09-09T09:19:38;7.85;;;4.15;;
51981;SDS011;37998;53.416;6.730;2022-09-09T09:28:10;8.15;;;3.72;;
51981;SDS011;37998;53.416;6.730;2022-09-09T09:30:41;8.25;;;4.15;;
51981;SDS011;37998;53.416;6.730;2022-09-09T09:35:58;4.80;;;3.88;;
51981;SDS011;37998;53.416;6.730;2022-09-09T09:38:25;7.43;;;4.25;;
51981;SDS011;37998;53.416;6.730;2022-09-09T09:40:53;9.32;;;3.92;;
51981;SDS011;37998;53.416;6.730;2022-09-09T09:43:24;6.78;;;4.28;;
51981;SDS011;37998;53.416;6.730;2022-09-09T09:45:53;6.28;;;4.05;;
51981;SDS011;37998;53.416;6.730;2022-09-09T09:48:19;7.30;;;4.30;;
51981;SDS011;37998;53.416;6.730;2022-09-09T09:50:48;4.28;;;3.33;;
51981;SDS011;37998;53.416;6.730;2022-09-09T09:58:22;10.95;;;4.00;;
51981;SDS011;37998;53.416;6.730;2022-09-09T10:00:49;7.00;;;3.47;;
51981;SDS011;37998;53.416;6.730;2022-09-09T10:05:54;6.68;;;3.95;;
51981;SDS011;37998;53.416;6.730;2022-09-09T10:08:22;8.43;;;4.10;;
51981;SDS011;37998;53.416;6.730;2022-09-09T10:11:38;5.80;;;3.70;;
51981;SDS011;37998;53.416;6.730;2022-09-09T10:13:54;5.63;;;3.92;;
51981;SDS011;37998;53.416;6.730;2022-09-09T10:19:20;5.68;;;2.80;;
51981;SDS011;37998;53.416;6.730;2022-09-09T10:24:51;10.05;;;3.17;;
51981;SDS011;37998;53.416;6.730;2022-09-09T10:27:27;6.57;;;3.30;;
51981;SDS011;37998;53.416;6.730;2022-09-09T10:32:45;7.25;;;3.03;;
51981;SDS011;37998;53.416;6.730;2022-09-09T10:35:50;6.07;;;2.65;;
51981;SDS011;37998;53.416;6.730;2022-09-09T10:38:38;6.03;;;2.80;;
51981;SDS011;37998;53.416;6.730;2022-09-09T10:41:19;6.75;;;3.15;;
51981;SDS011;37998;53.416;6.730;2022-09-09T10:52:16;7.63;;;2.78;;
51981;SDS011;37998;53.416;6.730;2022-09-09T11:00:24;8.27;;;4.00;;
51981;SDS011;37998;53.416;6.730;2022-09-09T11:03:00;9.52;;;3.00;;
51981;SDS011;37998;53.416;6.730;2022-09-09T11:05:36;10.17;;;3.47;;
51981;SDS011;37998;53.416;6.730;2022-09-09T11:08:11;8.55;;;2.72;;
51981;SDS011;37998;53.416;6.730;2022-09-09T11:16:19;6.68;;;2.65;;
51981;SDS011;37998;53.416;6.730;2022-09-09T11:19:00;7.00;;;3.13;;
51981;SDS011;37998;53.416;6.730;2022-09-09T11:21:34;7.63;;;2.90;;
51981;SDS011;37998;53.416;6.730;2022-09-09T11:24:10;9.52;;;2.75;;
51981;SDS011;37998;53.416;6.730;2022-09-09T11:26:45;7.28;;;2.67;;
51981;SDS011;37998;53.416;6.730;2022-09-09T11:29:43;10.75;;;2.88;;
51981;SDS011;37998;53.416;6.730;2022-09-09T11:40:14;9.23;;;2.83;;
51981;SDS011;37998;53.416;6.730;2022-09-09T11:42:44;6.45;;;2.42;;
51981;SDS011;37998;53.416;6.730;2022-09-09T11:45:23;6.35;;;2.50;;
51981;SDS011;37998;53.416;6.730;2022-09-09T11:47:57;3.85;;;1.77;;
51981;SDS011;37998;53.416;6.730;2022-09-09T11:52:49;6.97;;;2.60;;
51981;SDS011;37998;53.416;6.730;2022-09-09T11:55:34;6.85;;;2.67;;
51981;SDS011;37998;53.416;6.730;2022-09-09T11:58:02;8.15;;;2.60;;
51981;SDS011;37998;53.416;6.730;2022-09-09T12:03:02;11.70;;;2.23;;
51981;SDS011;37998;53.416;6.730;2022-09-09T12:05:51;5.63;;;2.22;;
51981;SDS011;37998;53.416;6.730;2022-09-09T12:08:20;9.32;;;2.15;;
51981;SDS011;37998;53.416;6.730;2022-09-09T12:10:53;5.72;;;1.90;;
51981;SDS011;37998;53.416;6.730;2022-09-09T12:13:22;7.03;;;2.30;;
51981;SDS011;37998;53.416;6.730;2022-09-09T12:15:53;4.03;;;1.90;;
51981;SDS011;37998;53.416;6.730;2022-09-09T12:18:25;4.07;;;1.58;;
51981;SDS011;37998;53.416;6.730;2022-09-09T12:21:07;4.35;;;1.60;;
51981;SDS011;37998;53.416;6.730;2022-09-09T12:23:54;3.13;;;1.48;;
51981;SDS011;37998;53.416;6.730;2022-09-09T12:28:54;3.08;;;1.48;;
51981;SDS011;37998;53.416;6.730;2022-09-09T12:31:25;7.38;;;1.88;;
51981;SDS011;37998;53.416;6.730;2022-09-09T12:37:05;5.25;;;1.80;;
51981;SDS011;37998;53.416;6.730;2022-09-09T12:39:45;7.82;;;1.98;;
51981;SDS011;37998;53.416;6.730;2022-09-09T12:42:20;6.50;;;1.73;;
51981;SDS011;37998;53.416;6.730;2022-09-09T12:44:54;4.40;;;1.67;;
51981;SDS011;37998;53.416;6.730;2022-09-09T12:47:23;4.65;;;2.00;;
51981;SDS011;37998;53.416;6.730;2022-09-09T12:49:54;3.50;;;1.45;;
51981;SDS011;37998;53.416;6.730;2022-09-09T12:52:29;7.05;;;2.45;;
51981;SDS011;37998;53.416;6.730;2022-09-09T12:55:01;5.00;;;1.63;;
51981;SDS011;37998;53.416;6.730;2022-09-09T12:57:31;4.25;;;1.80;;
51981;SDS011;37998;53.416;6.730;2022-09-09T13:00:14;6.45;;;1.80;;
51981;SDS011;37998;53.416;6.730;2022-09-09T13:02:45;6.22;;;1.63;;
51981;SDS011;37998;53.416;6.730;2022-09-09T13:05:27;5.40;;;2.08;;
51981;SDS011;37998;53.416;6.730;2022-09-09T13:08:01;8.18;;;1.70;;
51981;SDS011;37998;53.416;6.730;2022-09-09T13:10:29;7.95;;;1.65;;
51981;SDS011;37998;53.416;6.730;2022-09-09T13:12:58;6.22;;;1.75;;
51981;SDS011;37998;53.416;6.730;2022-09-09T13:15:26;6.35;;;1.77;;
51981;SDS011;37998;53.416;6.730;2022-09-09T13:17:55;6.35;;;2.03;;
51981;SDS011;37998;53.416;6.730;2022-09-09T13:20:28;8.00;;;2.55;;
51981;SDS011;37998;53.416;6.730;2022-09-09T13:22:54;5.60;;;1.63;;
51981;SDS011;37998;53.416;6.730;2022-09-09T13:30:31;4.88;;;1.67;;
51981;SDS011;37998;53.416;6.730;2022-09-09T13:38:18;6.75;;;1.95;;
51981;SDS011;37998;53.416;6.730;2022-09-09T13:43:22;3.78;;;1.40;;
51981;SDS011;37998;53.416;6.730;2022-09-09T13:45:53;5.07;;;1.38;;
51981;SDS011;37998;53.416;6.730;2022-09-09T13:48:21;5.00;;;1.40;;
51981;SDS011;37998;53.416;6.730;2022-09-09T13:50:54;4.38;;;1.50;;
51981;SDS011;37998;53.416;6.730;2022-09-09T13:53:24;3.15;;;1.40;;
51981;SDS011;37998;53.416;6.730;2022-09-09T13:55:50;5.03;;;1.98;;
51981;SDS011;37998;53.416;6.730;2022-09-09T13:58:17;5.65;;;2.38;;
51981;SDS011;37998;53.416;6.730;2022-09-09T14:00:44;4.38;;;1.80;;
51981;SDS011;37998;53.416;6.730;2022-09-09T14:03:10;4.53;;;1.30;;
51981;SDS011;37998;53.416;6.730;2022-09-09T14:05:36;4.57;;;2.33;;
51981;SDS011;37998;53.416;6.730;2022-09-09T14:08:06;10.88;;;1.92;;
51981;SDS011;37998;53.416;6.730;2022-09-09T14:10:32;5.57;;;1.80;;
51981;SDS011;37998;53.416;6.730;2022-09-09T14:13:01;9.48;;;1.70;;
51981;SDS011;37998;53.416;6.730;2022-09-09T14:15:27;6.80;;;1.75;;
51981;SDS011;37998;53.416;6.730;2022-09-09T14:17:53;5.03;;;1.40;;
51981;SDS011;37998;53.416;6.730;2022-09-09T14:20:19;4.35;;;2.58;;
51981;SDS011;37998;53.416;6.730;2022-09-09T14:22:45;4.45;;;1.75;;
51981;SDS011;37998;53.416;6.730;2022-09-09T14:25:11;2.60;;;1.45;;
51981;SDS011;37998;53.416;6.730;2022-09-09T14:27:38;4.47;;;1.52;;
51981;SDS011;37998;53.416;6.730;2022-09-09T14:30:05;7.15;;;1.92;;
51981;SDS011;37998;53.416;6.730;2022-09-09T14:32:32;6.78;;;2.20;;
51981;SDS011;37998;53.416;6.730;2022-09-09T14:34:58;7.18;;;1.50;;
51981;SDS011;37998;53.416;6.730;2022-09-09T14:37:23;4.68;;;1.48;;
51981;SDS011;37998;53.416;6.730;2022-09-09T14:39:49;6.63;;;1.52;;
51981;SDS011;37998;53.416;6.730;2022-09-09T14:42:16;9.32;;;2.28;;
51981;SDS011;37998;53.416;6.730;2022-09-09T14:44:42;10.13;;;3.55;;
51981;SDS011;37998;53.416;6.730;2022-09-09T14:47:07;4.40;;;1.60;;
51981;SDS011;37998;53.416;6.730;2022-09-09T14:49:37;2.88;;;1.52;;
51981;SDS011;37998;53.416;6.730;2022-09-09T14:52:03;5.35;;;1.67;;
51981;SDS011;37998;53.416;6.730;2022-09-09T14:54:29;5.20;;;1.88;;
51981;SDS011;37998;53.416;6.730;2022-09-09T14:56:56;6.65;;;2.22;;
51981;SDS011;37998;53.416;6.730;2022-09-09T14:59:22;8.00;;;2.15;;
51981;SDS011;37998;53.416;6.730;2022-09-09T15:01:48;4.65;;;1.80;;
51981;SDS011;37998;53.416;6.730;2022-09-09T15:04:14;3.83;;;1.63;;
51981;SDS011;37998;53.416;6.730;2022-09-09T15:06:41;6.82;;;1.70;;
51981;SDS011;37998;53.416;6.730;2022-09-09T15:09:09;4.03;;;1.77;;
51981;SDS011;37998;53.416;6.730;2022-09-09T15:11:36;3.92;;;1.80;;
51981;SDS011;37998;53.416;6.730;2022-09-09T15:14:03;3.95;;;1.58;;
51981;SDS011;37998;53.416;6.730;2022-09-09T15:16:33;3.75;;;1.40;;
51981;SDS011;37998;53.416;6.730;2022-09-09T15:18:59;2.97;;;1.27;;
51981;SDS011;37998;53.416;6.730;2022-09-09T15:21:29;3.03;;;1.20;;
51981;SDS011;37998;53.416;6.730;2022-09-09T15:23:57;6.50;;;1.90;;
51981;SDS011;37998;53.416;6.730;2022-09-09T15:26:23;5.70;;;2.05;;
51981;SDS011;37998;53.416;6.730;2022-09-09T15:28:49;3.65;;;1.33;;
51981;SDS011;37998;53.416;6.730;2022-09-09T15:31:17;4.03;;;1.45;;
51981;SDS011;37998;53.416;6.730;2022-09-09T15:33:50;3.95;;;1.65;;
51981;SDS011;37998;53.416;6.730;2022-09-09T15:36:23;2.97;;;1.50;;
51981;SDS011;37998;53.416;6.730;2022-09-09T15:38:51;5.07;;;1.60;;
51981;SDS011;37998;53.416;6.730;2022-09-09T15:41:18;3.88;;;2.03;;
51981;SDS011;37998;53.416;6.730;2022-09-09T15:43:45;5.40;;;1.77;;
51981;SDS011;37998;53.416;6.730;2022-09-09T15:48:42;5.22;;;1.58;;
51981;SDS011;37998;53.416;6.730;2022-09-09T15:51:11;3.03;;;1.50;;
51981;SDS011;37998;53.416;6.730;2022-09-09T15:53:37;3.17;;;1.50;;
51981;SDS011;37998;53.416;6.730;2022-09-09T15:56:06;3.30;;;1.20;;
51981;SDS011;37998;53.416;6.730;2022-09-09T15:58:33;5.97;;;1.70;;
51981;SDS011;37998;53.416;6.730;2022-09-09T16:01:03;5.47;;;1.60;;
51981;SDS011;37998;53.416;6.730;2022-09-09T16:03:33;2.08;;;1.20;;
51981;SDS011;37998;53.416;6.730;2022-09-09T16:06:00;5.93;;;2.30;;
51981;SDS011;37998;53.416;6.730;2022-09-09T16:08:31;4.80;;;2.10;;
51981;SDS011;37998;53.416;6.730;2022-09-09T16:11:20;7.07;;;2.45;;
51981;SDS011;37998;53.416;6.730;2022-09-09T16:13:54;4.35;;;1.70;;
51981;SDS011;37998;53.416;6.730;2022-09-09T16:16:24;6.65;;;1.80;;
51981;SDS011;37998;53.416;6.730;2022-09-09T16:18:53;4.35;;;1.55;;
51981;SDS011;37998;53.416;6.730;2022-09-09T16:21:31;4.85;;;1.60;;
51981;SDS011;37998;53.416;6.730;2022-09-09T16:24:02;3.85;;;1.38;;
51981;SDS011;37998;53.416;6.730;2022-09-09T16:26:30;3.40;;;1.70;;
51981;SDS011;37998;53.416;6.730;2022-09-09T16:28:56;7.18;;;2.20;;
51981;SDS011;37998;53.416;6.730;2022-09-09T16:31:24;4.65;;;1.98;;
51981;SDS011;37998;53.416;6.730;2022-09-09T16:33:50;5.25;;;2.30;;
51981;SDS011;37998;53.416;6.730;2022-09-09T16:36:22;6.00;;;2.10;;
51981;SDS011;37998;53.416;6.730;2022-09-09T16:38:53;5.60;;;2.10;;
51981;SDS011;37998;53.416;6.730;2022-09-09T16:41:26;6.25;;;2.10;;
51981;SDS011;37998;53.416;6.730;2022-09-09T16:43:59;6.78;;;1.67;;
51981;SDS011;37998;53.416;6.730;2022-09-09T16:46:27;3.47;;;1.10;;
51981;SDS011;37998;53.416;6.730;2022-09-09T16:48:55;3.20;;;1.23;;
51981;SDS011;37998;53.416;6.730;2022-09-09T16:51:24;5.88;;;1.10;;
51981;SDS011;37998;53.416;6.730;2022-09-09T16:53:52;1.17;;;0.80;;
51981;SDS011;37998;53.416;6.730;2022-09-09T16:56:19;2.45;;;1.00;;
51981;SDS011;37998;53.416;6.730;2022-09-09T16:58:53;1.70;;;0.82;;
51981;SDS011;37998;53.416;6.730;2022-09-09T17:01:21;2.00;;;1.10;;
51981;SDS011;37998;53.416;6.730;2022-09-09T17:03:47;2.13;;;1.00;;
51981;SDS011;37998;53.416;6.730;2022-09-09T17:06:20;1.40;;;0.90;;
51981;SDS011;37998;53.416;6.730;2022-09-09T17:08:46;1.90;;;1.00;;
51981;SDS011;37998;53.416;6.730;2022-09-09T17:11:17;3.72;;;1.17;;
51981;SDS011;37998;53.416;6.730;2022-09-09T17:13:45;3.47;;;1.20;;
51981;SDS011;37998;53.416;6.730;2022-09-09T17:16:12;3.75;;;1.00;;
51981;SDS011;37998;53.416;6.730;2022-09-09T17:18:39;1.85;;;1.02;;
51981;SDS011;37998;53.416;6.730;2022-09-09T17:21:06;1.77;;;1.17;;
51981;SDS011;37998;53.416;6.730;2022-09-09T17:23:34;1.73;;;1.00;;
51981;SDS011;37998;53.416;6.730;2022-09-09T17:26:03;2.28;;;1.20;;
51981;SDS011;37998;53.416;6.730;2022-09-09T17:28:30;2.45;;;1.00;;
51981;SDS011;37998;53.416;6.730;2022-09-09T17:30:59;1.35;;;1.17;;
51981;SDS011;37998;53.416;6.730;2022-09-09T17:33:31;2.58;;;1.13;;
51981;SDS011;37998;53.416;6.730;2022-09-09T17:36:02;4.07;;;1.85;;